Farmville, VA

5:47 AM EDT on March 28, 2017 (GMT -0400)
HSC Athletics | | Change Station

Elev 515 ft 37.25 °N, 78.46 °W | Updated 4 seconds ago

Rain
Rain
62.4 °F
Feels Like 62.4 °F
N
6.0
Wind Variable Wind from SSW
Gusts 13.0 mph

Today
High -- | Low -- °F
--% Chance of Precip.
Yesterday
High -- | Low -- °F
Precip. -- in
Pressure 29.87 in
Visibility 10.0 miles
Clouds Scattered Clouds 5500 ft
Mostly Cloudy 9500 ft
Mostly Cloudy 12000 ft
Dew Point 58 °F
Humidity 84%
Rainfall 0.00 in
Snow Depth Not available.
7:04 AM 7:32 PM
New Moon, 0% visible
METAR KFVX 280935Z AUTO 23004KT 10SM VCTS SCT055 BKN095 BKN120 18/15 A2987 RMK AO2 LTG DSNT SW THRU NW T01760148
Pressure 29.87 in
Visibility 10.0 miles
Clouds Scattered Clouds 5500 ft
Mostly Cloudy 9500 ft
Mostly Cloudy 12000 ft
Dew Point 58 °F
Humidity 84%
Rainfall 0.00 in
Snow Depth Not available.
7:04 AM 7:32 PM
New Moon, 0% visible
METAR KFVX 280935Z AUTO 23004KT 10SM VCTS SCT055 BKN095 BKN120 18/15 A2987 RMK AO2 LTG DSNT SW THRU NW T01760148

Get Severe Weather Alerts

Thanks for signing up!

Be on the lookout for a verification email in your inbox.

You'll start receiving the daily forecast at 8 AM.

×

10-Day Weather Forecast

Almanac

Astronomy

Mar. 28, 2017 Rise Set
Actual Time
Civil Twilight
Nautical Twilight
Astronomical Twilight
Moon
Length of Visible Light
Length of Day
Tomorrow will be .
, % of the Moon is Illuminated

Today's Extremes

State Highs State Lows

Community

WunderPhotos

Upload Photos

1,962,540 photos uploaded!

WunderBlog® & News

Nearby

Air Quality

  Air Quality AQ Index Pollutant
Not available.

Snow Depth

Station Depth Elevation

Earthquake Activity

City Distance Mag. Time & Date
Minimum magnitude displayed is 2.5.

Earthquake Activity

City Distance Mag. Time & Date
Minimum magnitude displayed is 2.5.

Coastal Water Temperatures

Place Temperature

Stations

Nearby Weather Stations

Station Location Temp. Windchill Dew Point Humidity Wind Precip. Elev Updated Type
                   

Watches & Warnings

There are currently no watches in effect.